sensor_id;sensor_type;location;lat;lon;timestamp;pressure;altitude;pressure_sealevel;temperature;humidity
39265;BME280;42646;51.910;7.724;2024-01-10T00:00:52;102586.69;;;-5.69;72.97
39265;BME280;42646;51.910;7.724;2024-01-10T00:03:20;102584.97;;;-5.67;73.02
39265;BME280;42646;51.910;7.724;2024-01-10T00:05:47;102582.38;;;-5.65;72.74
39265;BME280;42646;51.910;7.724;2024-01-10T00:08:16;102582.38;;;-5.64;72.72
39265;BME280;42646;51.910;7.724;2024-01-10T00:10:44;102583.28;;;-5.61;72.59
39265;BME280;42646;51.910;7.724;2024-01-10T00:13:12;102579.84;;;-5.62;72.45
39265;BME280;42646;51.910;7.724;2024-01-10T00:15:40;102578.09;;;-5.60;72.59
39265;BME280;42646;51.910;7.724;2024-01-10T00:18:07;102587.63;;;-5.60;72.46
39265;BME280;42646;51.910;7.724;2024-01-10T00:20:35;102580.69;;;-5.61;72.74
39265;BME280;42646;51.910;7.724;2024-01-10T00:23:03;102582.44;;;-5.62;72.63
39265;BME280;42646;51.910;7.724;2024-01-10T00:25:32;102578.97;;;-5.61;72.49
39265;BME280;42646;51.910;7.724;2024-01-10T00:28:00;102572.06;;;-5.62;72.56
39265;BME280;42646;51.910;7.724;2024-01-10T00:30:28;102575.47;;;-5.65;72.74
39265;BME280;42646;51.910;7.724;2024-01-10T00:32:55;102573.75;;;-5.67;72.87
39265;BME280;42646;51.910;7.724;2024-01-10T00:35:23;102559.91;;;-5.69;72.85
39265;BME280;42646;51.910;7.724;2024-01-10T00:37:51;102552.97;;;-5.70;73.12
39265;BME280;42646;51.910;7.724;2024-01-10T00:40:18;102549.50;;;-5.72;73.05
39265;BME280;42646;51.910;7.724;2024-01-10T00:42:48;102552.97;;;-5.73;73.24
39265;BME280;42646;51.910;7.724;2024-01-10T00:45:15;102555.53;;;-5.75;73.42
39265;BME280;42646;51.910;7.724;2024-01-10T00:47:43;102556.38;;;-5.76;73.62
39265;BME280;42646;51.910;7.724;2024-01-10T00:50:11;102559.00;;;-5.74;73.89
39265;BME280;42646;51.910;7.724;2024-01-10T00:52:39;102557.25;;;-5.75;73.75
39265;BME280;42646;51.910;7.724;2024-01-10T00:55:07;102555.50;;;-5.76;73.91
39265;BME280;42646;51.910;7.724;2024-01-10T00:57:35;102545.13;;;-5.78;73.66
39265;BME280;42646;51.910;7.724;2024-01-10T01:00:07;102542.56;;;-5.78;73.79
39265;BME280;42646;51.910;7.724;2024-01-10T01:02:35;102547.72;;;-5.81;74.05
39265;BME280;42646;51.910;7.724;2024-01-10T01:05:03;102547.72;;;-5.81;74.29
39265;BME280;42646;51.910;7.724;2024-01-10T01:07:31;102544.25;;;-5.81;74.18
39265;BME280;42646;51.910;7.724;2024-01-10T01:09:59;102537.31;;;-5.82;74.13
39265;BME280;42646;51.910;7.724;2024-01-10T01:12:27;102541.66;;;-5.81;74.35
39265;BME280;42646;51.910;7.724;2024-01-10T01:14:55;102544.22;;;-5.84;74.51
39265;BME280;42646;51.910;7.724;2024-01-10T01:17:24;102544.19;;;-5.87;74.54
39265;BME280;42646;51.910;7.724;2024-01-10T01:19:52;102553.69;;;-5.88;74.86
39265;BME280;42646;51.910;7.724;2024-01-10T01:22:19;102555.41;;;-5.88;75.00
39265;BME280;42646;51.910;7.724;2024-01-10T01:24:47;102551.94;;;-5.91;74.88
39265;BME280;42646;51.910;7.724;2024-01-10T01:27:15;102547.66;;;-5.92;75.33
39265;BME280;42646;51.910;7.724;2024-01-10T01:29:43;102550.22;;;-5.93;75.08
39265;BME280;42646;51.910;7.724;2024-01-10T01:32:10;102549.34;;;-5.95;75.15
39265;BME280;42646;51.910;7.724;2024-01-10T01:34:39;102540.72;;;-5.96;75.22
39265;BME280;42646;51.910;7.724;2024-01-10T01:37:07;102542.44;;;-5.96;75.60
39265;BME280;42646;51.910;7.724;2024-01-10T01:39:35;102543.31;;;-5.97;75.66
39265;BME280;42646;51.910;7.724;2024-01-10T01:42:04;102551.06;;;-5.99;75.70
39265;BME280;42646;51.910;7.724;2024-01-10T01:44:32;102543.28;;;-5.99;75.57
39265;BME280;42646;51.910;7.724;2024-01-10T01:46:59;102539.81;;;-5.99;75.32
39265;BME280;42646;51.910;7.724;2024-01-10T01:49:29;102531.16;;;-6.00;75.26
39265;BME280;42646;51.910;7.724;2024-01-10T01:51:59;102530.31;;;-6.00;75.51
39265;BME280;42646;51.910;7.724;2024-01-10T01:54:27;102526.84;;;-5.99;75.78
39265;BME280;42646;51.910;7.724;2024-01-10T01:56:56;102522.56;;;-5.99;75.47
39265;BME280;42646;51.910;7.724;2024-01-10T01:59:24;102524.31;;;-5.98;75.95
39265;BME280;42646;51.910;7.724;2024-01-10T02:01:54;102530.34;;;-5.99;75.89
39265;BME280;42646;51.910;7.724;2024-01-10T02:04:22;102535.47;;;-6.00;76.08
39265;BME280;42646;51.910;7.724;2024-01-10T02:06:50;102534.63;;;-6.02;75.91
39265;BME280;42646;51.910;7.724;2024-01-10T02:09:20;102523.38;;;-6.04;76.25
39265;BME280;42646;51.910;7.724;2024-01-10T02:11:48;102528.53;;;-6.07;76.20
39265;BME280;42646;51.910;7.724;2024-01-10T02:14:16;102525.94;;;-6.09;76.58
39265;BME280;42646;51.910;7.724;2024-01-10T02:16:44;102525.91;;;-6.10;76.41
39265;BME280;42646;51.910;7.724;2024-01-10T02:19:19;102521.56;;;-6.11;76.78
39265;BME280;42646;51.910;7.724;2024-01-10T02:21:47;102525.03;;;-6.12;76.64
39265;BME280;42646;51.910;7.724;2024-01-10T02:24:15;102518.97;;;-6.14;76.97
39265;BME280;42646;51.910;7.724;2024-01-10T02:26:44;102514.66;;;-6.15;77.00
39265;BME280;42646;51.910;7.724;2024-01-10T02:29:12;102506.84;;;-6.17;77.41
39265;BME280;42646;51.910;7.724;2024-01-10T02:31:40;102512.03;;;-6.17;77.40
39265;BME280;42646;51.910;7.724;2024-01-10T02:34:07;102502.50;;;-6.20;77.43
39265;BME280;42646;51.910;7.724;2024-01-10T02:36:35;102502.50;;;-6.20;77.51
39265;BME280;42646;51.910;7.724;2024-01-10T02:39:03;102502.50;;;-6.21;77.30
39265;BME280;42646;51.910;7.724;2024-01-10T02:41:30;102498.19;;;-6.22;77.66
39265;BME280;42646;51.910;7.724;2024-01-10T02:43:59;102500.75;;;-6.24;77.63
39265;BME280;42646;51.910;7.724;2024-01-10T02:46:27;102492.97;;;-6.24;77.30
39265;BME280;42646;51.910;7.724;2024-01-10T02:48:55;102483.47;;;-6.26;77.64
39265;BME280;42646;51.910;7.724;2024-01-10T02:51:24;102496.41;;;-6.28;77.70
39265;BME280;42646;51.910;7.724;2024-01-10T02:53:52;102498.97;;;-6.29;77.78
39265;BME280;42646;51.910;7.724;2024-01-10T02:56:19;102481.69;;;-6.30;77.70
39265;BME280;42646;51.910;7.724;2024-01-10T02:58:47;102486.88;;;-6.32;78.23
39265;BME280;42646;51.910;7.724;2024-01-10T03:01:16;102487.72;;;-6.33;78.36
39265;BME280;42646;51.910;7.724;2024-01-10T03:03:44;102485.09;;;-6.36;78.25
39265;BME280;42646;51.910;7.724;2024-01-10T03:06:12;102482.47;;;-6.40;78.40
39265;BME280;42646;51.910;7.724;2024-01-10T03:08:39;102479.88;;;-6.42;78.45
39265;BME280;42646;51.910;7.724;2024-01-10T03:11:07;102475.53;;;-6.46;78.43
39265;BME280;42646;51.910;7.724;2024-01-10T03:13:35;102473.75;;;-6.50;78.69
39265;BME280;42646;51.910;7.724;2024-01-10T03:16:04;102478.06;;;-6.52;78.44
39265;BME280;42646;51.910;7.724;2024-01-10T03:18:33;102480.63;;;-6.55;78.46
39265;BME280;42646;51.910;7.724;2024-01-10T03:21:01;102485.75;;;-6.58;78.65
39265;BME280;42646;51.910;7.724;2024-01-10T03:23:29;102484.88;;;-6.60;78.76
39265;BME280;42646;51.910;7.724;2024-01-10T03:25:57;102484.88;;;-6.60;78.52
39265;BME280;42646;51.910;7.724;2024-01-10T03:28:24;102479.69;;;-6.63;78.72
39265;BME280;42646;51.910;7.724;2024-01-10T03:30:52;102474.50;;;-6.63;78.72
39265;BME280;42646;51.910;7.724;2024-01-10T03:33:20;102478.81;;;-6.64;78.81
39265;BME280;42646;51.910;7.724;2024-01-10T03:35:49;102467.56;;;-6.67;79.02
39265;BME280;42646;51.910;7.724;2024-01-10T03:38:16;102475.31;;;-6.67;79.35
39265;BME280;42646;51.910;7.724;2024-01-10T03:40:44;102472.72;;;-6.69;79.19
39265;BME280;42646;51.910;7.724;2024-01-10T03:43:12;102463.19;;;-6.70;79.56
39265;BME280;42646;51.910;7.724;2024-01-10T03:45:40;102467.50;;;-6.70;79.61
39265;BME280;42646;51.910;7.724;2024-01-10T03:48:08;102450.25;;;-6.73;79.62
39265;BME280;42646;51.910;7.724;2024-01-10T03:50:35;102453.69;;;-6.74;79.80
39265;BME280;42646;51.910;7.724;2024-01-10T03:53:04;102457.09;;;-6.77;79.92
39265;BME280;42646;51.910;7.724;2024-01-10T03:55:32;102448.47;;;-6.77;79.93
39265;BME280;42646;51.910;7.724;2024-01-10T03:58:00;102455.38;;;-6.78;80.18
39265;BME280;42646;51.910;7.724;2024-01-10T04:00:28;102451.03;;;-6.80;80.18
39265;BME280;42646;51.910;7.724;2024-01-10T04:02:55;102449.31;;;-6.80;80.53
39265;BME280;42646;51.910;7.724;2024-01-10T04:05:23;102456.22;;;-6.79;80.28
39265;BME280;42646;51.910;7.724;2024-01-10T04:07:53;102459.69;;;-6.78;80.18
39265;BME280;42646;51.910;7.724;2024-01-10T04:10:24;102458.81;;;-6.77;80.43
39265;BME280;42646;51.910;7.724;2024-01-10T04:12:52;102459.72;;;-6.75;80.20
39265;BME280;42646;51.910;7.724;2024-01-10T04:15:20;102463.19;;;-6.75;80.45
39265;BME280;42646;51.910;7.724;2024-01-10T04:17:47;102464.03;;;-6.76;80.45
39265;BME280;42646;51.910;7.724;2024-01-10T04:20:15;102461.41;;;-6.79;80.56
39265;BME280;42646;51.910;7.724;2024-01-10T04:22:43;102469.16;;;-6.80;80.42
39265;BME280;42646;51.910;7.724;2024-01-10T04:25:11;102469.16;;;-6.82;80.44
39265;BME280;42646;51.910;7.724;2024-01-10T04:27:40;102469.09;;;-6.85;80.31
39265;BME280;42646;51.910;7.724;2024-01-10T04:30:08;102458.75;;;-6.86;80.16
39265;BME280;42646;51.910;7.724;2024-01-10T04:32:36;102465.63;;;-6.87;80.12
39265;BME280;42646;51.910;7.724;2024-01-10T04:35:04;102446.63;;;-6.89;80.37
39265;BME280;42646;51.910;7.724;2024-01-10T04:37:32;102444.88;;;-6.91;80.16
39265;BME280;42646;51.910;7.724;2024-01-10T04:39:59;102446.59;;;-6.93;80.52
39265;BME280;42646;51.910;7.724;2024-01-10T04:42:27;102450.00;;;-6.94;80.41
39265;BME280;42646;51.910;7.724;2024-01-10T04:44:56;102450.00;;;-6.97;80.14
39265;BME280;42646;51.910;7.724;2024-01-10T04:47:23;102445.63;;;-7.00;80.09
39265;BME280;42646;51.910;7.724;2024-01-10T04:49:51;102446.50;;;-7.01;80.34
39265;BME280;42646;51.910;7.724;2024-01-10T04:52:19;102453.38;;;-7.03;80.23
39265;BME280;42646;51.910;7.724;2024-01-10T04:54:47;102453.38;;;-7.05;80.13
39265;BME280;42646;51.910;7.724;2024-01-10T04:57:14;102452.47;;;-7.07;80.28
39265;BME280;42646;51.910;7.724;2024-01-10T04:59:42;102452.44;;;-7.10;80.38
39265;BME280;42646;51.910;7.724;2024-01-10T05:02:11;102463.66;;;-7.11;80.60
39265;BME280;42646;51.910;7.724;2024-01-10T05:04:39;102470.53;;;-7.11;80.43
39265;BME280;42646;51.910;7.724;2024-01-10T05:07:07;102461.88;;;-7.13;80.35
39265;BME280;42646;51.910;7.724;2024-01-10T05:09:34;102458.41;;;-7.15;80.67
39265;BME280;42646;51.910;7.724;2024-01-10T05:12:02;102462.72;;;-7.17;80.85
39265;BME280;42646;51.910;7.724;2024-01-10T05:14:30;102466.09;;;-7.20;81.14
39265;BME280;42646;51.910;7.724;2024-01-10T05:16:58;102460.06;;;-7.22;81.02
39265;BME280;42646;51.910;7.724;2024-01-10T05:19:27;102465.19;;;-7.25;80.81
39265;BME280;42646;51.910;7.724;2024-01-10T05:21:56;102460.84;;;-7.28;81.27
39265;BME280;42646;51.910;7.724;2024-01-10T05:24:27;102462.53;;;-7.30;81.19
39265;BME280;42646;51.910;7.724;2024-01-10T05:26:54;102455.63;;;-7.31;81.17
39265;BME280;42646;51.910;7.724;2024-01-10T05:29:22;102450.44;;;-7.34;81.17
39265;BME280;42646;51.910;7.724;2024-01-10T05:31:51;102452.13;;;-7.36;81.13
39265;BME280;42646;51.910;7.724;2024-01-10T05:34:19;102447.78;;;-7.38;80.98
39265;BME280;42646;51.910;7.724;2024-01-10T05:36:48;102449.50;;;-7.40;80.94
39265;BME280;42646;51.910;7.724;2024-01-10T05:39:16;102445.16;;;-7.41;81.11
39265;BME280;42646;51.910;7.724;2024-01-10T05:41:47;102437.38;;;-7.43;81.48
39265;BME280;42646;51.910;7.724;2024-01-10T05:44:14;102452.00;;;-7.45;81.21
39265;BME280;42646;51.910;7.724;2024-01-10T05:46:42;102458.03;;;-7.46;81.62
39265;BME280;42646;51.910;7.724;2024-01-10T05:49:10;102464.06;;;-7.47;81.76
39265;BME280;42646;51.910;7.724;2024-01-10T05:51:38;102459.69;;;-7.49;81.61
39265;BME280;42646;51.910;7.724;2024-01-10T05:54:07;102456.25;;;-7.51;81.35
39265;BME280;42646;51.910;7.724;2024-01-10T05:56:35;102458.78;;;-7.53;81.38
39265;BME280;42646;51.910;7.724;2024-01-10T05:59:03;102469.97;;;-7.54;81.50
39265;BME280;42646;51.910;7.724;2024-01-10T06:01:30;102474.25;;;-7.56;81.74
39265;BME280;42646;51.910;7.724;2024-01-10T06:03:58;102474.25;;;-7.58;81.73
39265;BME280;42646;51.910;7.724;2024-01-10T06:06:26;102465.59;;;-7.60;81.81
39265;BME280;42646;51.910;7.724;2024-01-10T06:08:53;102462.13;;;-7.60;81.86
39265;BME280;42646;51.910;7.724;2024-01-10T06:11:22;102466.44;;;-7.62;82.23
39265;BME280;42646;51.910;7.724;2024-01-10T06:13:50;102462.09;;;-7.65;82.17
39265;BME280;42646;51.910;7.724;2024-01-10T06:16:23;102460.34;;;-7.66;82.62
39265;BME280;42646;51.910;7.724;2024-01-10T06:18:50;102451.69;;;-7.69;82.72
39265;BME280;42646;51.910;7.724;2024-01-10T06:21:18;102462.03;;;-7.69;82.89
39265;BME280;42646;51.910;7.724;2024-01-10T06:23:46;102455.94;;;-7.71;83.26
39265;BME280;42646;51.910;7.724;2024-01-10T06:26:14;102454.22;;;-7.74;83.55
39265;BME280;42646;51.910;7.724;2024-01-10T06:28:43;102459.34;;;-7.75;83.60
39265;BME280;42646;51.910;7.724;2024-01-10T06:31:11;102458.44;;;-7.77;83.45
39265;BME280;42646;51.910;7.724;2024-01-10T06:33:38;102453.28;;;-7.79;83.97
39265;BME280;42646;51.910;7.724;2024-01-10T06:36:06;102449.81;;;-7.81;83.74
39265;BME280;42646;51.910;7.724;2024-01-10T06:38:35;102446.31;;;-7.83;83.84
39265;BME280;42646;51.910;7.724;2024-01-10T06:41:07;102442.88;;;-7.84;83.90
39265;BME280;42646;51.910;7.724;2024-01-10T06:43:36;102446.28;;;-7.86;84.19
39265;BME280;42646;51.910;7.724;2024-01-10T06:46:05;102454.03;;;-7.88;84.12
39265;BME280;42646;51.910;7.724;2024-01-10T06:48:32;102447.09;;;-7.89;84.31
39265;BME280;42646;51.910;7.724;2024-01-10T06:51:00;102445.41;;;-7.88;84.48
39265;BME280;42646;51.910;7.724;2024-01-10T06:53:28;102444.50;;;-7.89;84.32
39265;BME280;42646;51.910;7.724;2024-01-10T06:55:56;102442.78;;;-7.90;84.26
39265;BME280;42646;51.910;7.724;2024-01-10T06:58:23;102449.66;;;-7.89;84.26
39265;BME280;42646;51.910;7.724;2024-01-10T07:00:51;102448.88;;;-7.86;84.71
39265;BME280;42646;51.910;7.724;2024-01-10T07:03:20;102447.22;;;-7.83;84.90
39265;BME280;42646;51.910;7.724;2024-01-10T07:05:48;102441.22;;;-7.77;84.60
39265;BME280;42646;51.910;7.724;2024-01-10T07:08:15;102449.91;;;-7.72;84.81
39265;BME280;42646;51.910;7.724;2024-01-10T07:10:43;102449.13;;;-7.66;84.83
39265;BME280;42646;51.910;7.724;2024-01-10T07:13:11;102443.16;;;-7.62;85.24
39265;BME280;42646;51.910;7.724;2024-01-10T07:15:38;102445.78;;;-7.59;84.99
39265;BME280;42646;51.910;7.724;2024-01-10T07:18:06;102441.53;;;-7.56;85.26
39265;BME280;42646;51.910;7.724;2024-01-10T07:20:35;102447.63;;;-7.50;85.08
39265;BME280;42646;51.910;7.724;2024-01-10T07:23:04;102456.31;;;-7.45;85.12
39265;BME280;42646;51.910;7.724;2024-01-10T07:25:32;102471.00;;;-7.41;85.14
39265;BME280;42646;51.910;7.724;2024-01-10T07:28:00;102456.41;;;-7.38;85.16
39265;BME280;42646;51.910;7.724;2024-01-10T07:30:27;102462.47;;;-7.36;84.77
39265;BME280;42646;51.910;7.724;2024-01-10T07:32:59;102463.31;;;-7.35;84.95
39265;BME280;42646;51.910;7.724;2024-01-10T07:35:28;102460.78;;;-7.34;84.42
39265;BME280;42646;51.910;7.724;2024-01-10T07:37:58;102456.47;;;-7.32;84.22
39265;BME280;42646;51.910;7.724;2024-01-10T07:40:25;102447.03;;;-7.30;84.06
39265;BME280;42646;51.910;7.724;2024-01-10T07:42:53;102447.94;;;-7.26;83.87
39265;BME280;42646;51.910;7.724;2024-01-10T07:45:22;102449.69;;;-7.23;83.85
39265;BME280;42646;51.910;7.724;2024-01-10T07:47:49;102454.88;;;-7.22;83.96
39265;BME280;42646;51.910;7.724;2024-01-10T07:50:17;102468.69;;;-7.18;83.77
39265;BME280;42646;51.910;7.724;2024-01-10T07:52:46;102464.44;;;-7.16;83.71
39265;BME280;42646;51.910;7.724;2024-01-10T07:55:15;102468.75;;;-7.14;83.98
39265;BME280;42646;51.910;7.724;2024-01-10T07:57:42;102463.66;;;-7.11;83.66
39265;BME280;42646;51.910;7.724;2024-01-10T08:00:11;102466.25;;;-7.09;83.64
39265;BME280;42646;51.910;7.724;2024-01-10T08:02:40;102469.69;;;-7.07;83.34
39265;BME280;42646;51.910;7.724;2024-01-10T08:05:08;102468.91;;;-7.03;83.32
39265;BME280;42646;51.910;7.724;2024-01-10T08:07:36;102468.91;;;-7.00;82.70
39265;BME280;42646;51.910;7.724;2024-01-10T08:10:05;102475.00;;;-6.96;82.66
39265;BME280;42646;51.910;7.724;2024-01-10T08:12:34;102466.44;;;-6.92;82.67
39265;BME280;42646;51.910;7.724;2024-01-10T08:15:01;102475.06;;;-6.90;82.15
39265;BME280;42646;51.910;7.724;2024-01-10T08:17:29;102472.56;;;-6.83;81.95
39265;BME280;42646;51.910;7.724;2024-01-10T08:19:57;102473.47;;;-6.76;81.67
39265;BME280;42646;51.910;7.724;2024-01-10T08:22:24;102470.09;;;-6.70;81.47
39265;BME280;42646;51.910;7.724;2024-01-10T08:24:54;102469.28;;;-6.66;81.04
39265;BME280;42646;51.910;7.724;2024-01-10T08:27:22;102471.94;;;-6.60;81.05
39265;BME280;42646;51.910;7.724;2024-01-10T08:29:51;102474.59;;;-6.53;81.09
39265;BME280;42646;51.910;7.724;2024-01-10T08:32:19;102467.78;;;-6.44;80.58
39265;BME280;42646;51.910;7.724;2024-01-10T08:34:48;102471.28;;;-6.38;80.22
39265;BME280;42646;51.910;7.724;2024-01-10T08:37:16;102477.38;;;-6.31;79.79
39265;BME280;42646;51.910;7.724;2024-01-10T08:39:44;102473.13;;;-6.25;79.55
39265;BME280;42646;51.910;7.724;2024-01-10T08:42:12;102460.22;;;-6.20;79.14
39265;BME280;42646;51.910;7.724;2024-01-10T08:44:39;102459.41;;;-6.11;78.88
39265;BME280;42646;51.910;7.724;2024-01-10T08:47:08;102463.75;;;-6.09;78.82
39265;BME280;42646;51.910;7.724;2024-01-10T08:49:36;102462.06;;;-6.02;78.73
39265;BME280;42646;51.910;7.724;2024-01-10T08:52:05;102458.66;;;-5.97;78.14
39265;BME280;42646;51.910;7.724;2024-01-10T08:54:32;102461.25;;;-5.91;77.99
39265;BME280;42646;51.910;7.724;2024-01-10T08:57:00;102457.84;;;-5.86;78.15
39265;BME280;42646;51.910;7.724;2024-01-10T08:59:29;102463.91;;;-5.83;77.78
39265;BME280;42646;51.910;7.724;2024-01-10T09:01:57;102458.75;;;-5.77;77.58
39265;BME280;42646;51.910;7.724;2024-01-10T09:04:26;102453.59;;;-5.72;77.90
39265;BME280;42646;51.910;7.724;2024-01-10T09:06:53;102454.50;;;-5.66;77.26
39265;BME280;42646;51.910;7.724;2024-01-10T09:09:21;102451.94;;;-5.59;77.41
39265;BME280;42646;51.910;7.724;2024-01-10T09:11:49;102446.78;;;-5.53;77.07
39265;BME280;42646;51.910;7.724;2024-01-10T09:14:17;102448.53;;;-5.46;77.02
39265;BME280;42646;51.910;7.724;2024-01-10T09:16:46;102445.13;;;-5.34;76.47
39265;BME280;42646;51.910;7.724;2024-01-10T09:19:13;102453.81;;;-5.29;75.94
39265;BME280;42646;51.910;7.724;2024-01-10T09:21:43;102446.91;;;-5.23;75.42
39265;BME280;42646;51.910;7.724;2024-01-10T09:24:10;102448.69;;;-5.14;74.87
39265;BME280;42646;51.910;7.724;2024-01-10T09:26:54;102445.22;;;-5.12;74.73
39265;BME280;42646;51.910;7.724;2024-01-10T09:29:23;102447.84;;;-5.05;74.67
39265;BME280;42646;51.910;7.724;2024-01-10T09:31:52;102444.41;;;-5.00;74.14
39265;BME280;42646;51.910;7.724;2024-01-10T09:34:19;102447.00;;;-4.92;74.23
39265;BME280;42646;51.910;7.724;2024-01-10T09:36:49;102447.06;;;-4.85;73.80
39265;BME280;42646;51.910;7.724;2024-01-10T09:39:16;102450.53;;;-4.78;73.46
39265;BME280;42646;51.910;7.724;2024-01-10T09:41:46;102450.53;;;-4.69;72.67
39265;BME280;42646;51.910;7.724;2024-01-10T09:44:15;102450.53;;;-4.63;72.45
39265;BME280;42646;51.910;7.724;2024-01-10T09:46:47;102443.63;;;-4.54;72.42
39265;BME280;42646;51.910;7.724;2024-01-10T09:49:15;102445.38;;;-4.47;72.38
39265;BME280;42646;51.910;7.724;2024-01-10T09:51:45;102441.91;;;-4.37;72.40
39265;BME280;42646;51.910;7.724;2024-01-10T09:54:16;102437.56;;;-4.29;72.17
39265;BME280;42646;51.910;7.724;2024-01-10T09:56:47;102436.72;;;-4.19;71.32
39265;BME280;42646;51.910;7.724;2024-01-10T09:59:14;102434.97;;;-4.11;70.76
39265;BME280;42646;51.910;7.724;2024-01-10T10:01:42;102438.44;;;-4.03;70.45
39265;BME280;42646;51.910;7.724;2024-01-10T10:04:12;102438.41;;;-3.92;69.98
39265;BME280;42646;51.910;7.724;2024-01-10T10:06:40;102434.09;;;-3.85;69.64
39265;BME280;42646;51.910;7.724;2024-01-10T10:09:08;102441.84;;;-3.74;69.17
39265;BME280;42646;51.910;7.724;2024-01-10T10:11:38;102437.47;;;-3.68;68.47
39265;BME280;42646;51.910;7.724;2024-01-10T10:14:14;102434.88;;;-3.62;68.46
39265;BME280;42646;51.910;7.724;2024-01-10T10:16:43;102438.31;;;-3.51;68.16
39265;BME280;42646;51.910;7.724;2024-01-10T10:19:11;102429.63;;;-3.46;67.73
39265;BME280;42646;51.910;7.724;2024-01-10T10:21:49;102431.34;;;-3.39;67.23
39265;BME280;42646;51.910;7.724;2024-01-10T10:24:17;102426.13;;;-3.36;67.14
39265;BME280;42646;51.910;7.724;2024-01-10T10:26:49;102437.34;;;-3.28;66.89
39265;BME280;42646;51.910;7.724;2024-01-10T10:29:17;102437.38;;;-3.25;66.15
39265;BME280;42646;51.910;7.724;2024-01-10T10:31:47;102439.94;;;-3.19;66.02
39265;BME280;42646;51.910;7.724;2024-01-10T10:34:20;102432.97;;;-3.12;65.28
39265;BME280;42646;51.910;7.724;2024-01-10T10:36:48;102427.75;;;-3.08;64.53
39265;BME280;42646;51.910;7.724;2024-01-10T10:39:16;102425.09;;;-3.03;64.09
39265;BME280;42646;51.910;7.724;2024-01-10T10:41:46;102425.94;;;-2.95;63.50
39265;BME280;42646;51.910;7.724;2024-01-10T10:44:18;102425.91;;;-2.89;63.75
39265;BME280;42646;51.910;7.724;2024-01-10T10:46:49;102418.91;;;-2.84;63.18
39265;BME280;42646;51.910;7.724;2024-01-10T10:49:26;102423.22;;;-2.77;63.55
39265;BME280;42646;51.910;7.724;2024-01-10T10:51:57;102413.59;;;-2.69;63.18
39265;BME280;42646;51.910;7.724;2024-01-10T10:54:28;102414.47;;;-2.66;62.98
39265;BME280;42646;51.910;7.724;2024-01-10T10:56:57;102412.66;;;-2.61;62.84
39265;BME280;42646;51.910;7.724;2024-01-10T10:59:29;102405.69;;;-2.56;62.96
39265;BME280;42646;51.910;7.724;2024-01-10T11:01:58;102416.06;;;-2.49;62.75
39265;BME280;42646;51.910;7.724;2024-01-10T11:04:27;102412.56;;;-2.43;62.48
39265;BME280;42646;51.910;7.724;2024-01-10T11:06:55;102412.50;;;-2.38;62.22
39265;BME280;42646;51.910;7.724;2024-01-10T11:09:23;102405.47;;;-2.32;62.17
39265;BME280;42646;51.910;7.724;2024-01-10T11:12:04;102407.16;;;-2.26;61.81
39265;BME280;42646;51.910;7.724;2024-01-10T11:14:51;102396.72;;;-2.23;61.88
39265;BME280;42646;51.910;7.724;2024-01-10T11:17:34;102412.31;;;-2.17;62.33
39265;BME280;42646;51.910;7.724;2024-01-10T11:20:21;102403.63;;;-2.16;62.24
39265;BME280;42646;51.910;7.724;2024-01-10T11:23:06;102395.78;;;-2.13;61.56
39265;BME280;42646;51.910;7.724;2024-01-10T11:25:39;102403.56;;;-2.10;61.56
39265;BME280;42646;51.910;7.724;2024-01-10T11:28:07;102403.50;;;-2.05;61.19
39265;BME280;42646;51.910;7.724;2024-01-10T11:30:48;102400.00;;;-2.03;61.42
39265;BME280;42646;51.910;7.724;2024-01-10T11:33:21;102402.53;;;-1.97;61.32
39265;BME280;42646;51.910;7.724;2024-01-10T11:36:09;102389.47;;;-1.92;60.49
39265;BME280;42646;51.910;7.724;2024-01-10T11:38:41;102387.66;;;-1.85;60.13
39265;BME280;42646;51.910;7.724;2024-01-10T11:41:15;102388.50;;;-1.85;60.15
39265;BME280;42646;51.910;7.724;2024-01-10T11:44:25;102382.41;;;-1.81;59.73
39265;BME280;42646;51.910;7.724;2024-01-10T11:46:55;102379.72;;;-1.75;59.59
39265;BME280;42646;51.910;7.724;2024-01-10T11:49:24;102378.81;;;-1.71;59.50
39265;BME280;42646;51.910;7.724;2024-01-10T11:51:55;102386.63;;;-1.69;59.28
39265;BME280;42646;51.910;7.724;2024-01-10T11:54:40;102390.97;;;-1.70;58.49
39265;BME280;42646;51.910;7.724;2024-01-10T11:57:10;102388.31;;;-1.65;59.09
39265;BME280;42646;51.910;7.724;2024-01-10T11:59:41;102384.75;;;-1.61;58.88
39265;BME280;42646;51.910;7.724;2024-01-10T12:02:10;102384.78;;;-1.59;58.89
39265;BME280;42646;51.910;7.724;2024-01-10T12:04:38;102376.78;;;-1.49;58.16
39265;BME280;42646;51.910;7.724;2024-01-10T12:07:15;102377.69;;;-1.51;57.78
39265;BME280;42646;51.910;7.724;2024-01-10T12:09:43;102369.88;;;-1.51;57.63
39265;BME280;42646;51.910;7.724;2024-01-10T12:12:12;102373.34;;;-1.51;57.65
39265;BME280;42646;51.910;7.724;2024-01-10T12:14:40;102359.38;;;-1.47;58.07
39265;BME280;42646;51.910;7.724;2024-01-10T12:17:11;102371.47;;;-1.43;57.59
39265;BME280;42646;51.910;7.724;2024-01-10T12:19:38;102368.00;;;-1.40;57.53
39265;BME280;42646;51.910;7.724;2024-01-10T12:22:07;102372.28;;;-1.38;57.14
39265;BME280;42646;51.910;7.724;2024-01-10T12:24:42;102378.38;;;-1.36;56.87
39265;BME280;42646;51.910;7.724;2024-01-10T12:27:10;102372.28;;;-1.35;57.29
39265;BME280;42646;51.910;7.724;2024-01-10T12:29:38;102373.03;;;-1.28;57.20
39265;BME280;42646;51.910;7.724;2024-01-10T12:32:07;102368.56;;;-1.20;56.33
39265;BME280;42646;51.910;7.724;2024-01-10T12:34:38;102368.63;;;-1.23;56.78
39265;BME280;42646;51.910;7.724;2024-01-10T12:37:07;102359.00;;;-1.19;56.31
39265;BME280;42646;51.910;7.724;2024-01-10T12:39:36;102365.03;;;-1.13;55.53
39265;BME280;42646;51.910;7.724;2024-01-10T12:42:04;102359.69;;;-1.08;55.55
39265;BME280;42646;51.910;7.724;2024-01-10T12:44:32;102368.31;;;-1.00;55.20
39265;BME280;42646;51.910;7.724;2024-01-10T12:47:00;102348.34;;;-1.04;54.81
39265;BME280;42646;51.910;7.724;2024-01-10T12:49:29;102347.41;;;-1.01;54.85
39265;BME280;42646;51.910;7.724;2024-01-10T12:51:58;102349.13;;;-0.99;55.30
39265;BME280;42646;51.910;7.724;2024-01-10T12:54:26;102350.81;;;-0.95;55.14
39265;BME280;42646;51.910;7.724;2024-01-10T12:56:53;102345.50;;;-0.90;54.61
39265;BME280;42646;51.910;7.724;2024-01-10T12:59:23;102345.50;;;-0.89;54.78